Time;durP1;ratioP1;P1;durP2;ratioP2;P2;SDS_P1;SDS_P2;PMS_P1;PMS_P2;Temp;Humidity;BMP_temperature;BMP_pressure;BME280_temperature;BME280_humidity;BME280_pressure;Samples;Min_cycle;Max_cycle;Signal;HPM_P1;HPM_P2
2022/11/23 00:00:13;;;;;;;25.47;13.00;;;;;;;;;;5095616;28;20771;-68
2022/11/23 00:02:41;;;;;;;24.70;12.30;;;;;;;;;;5094939;28;20486;-68
2022/11/23 00:05:09;;;;;;;19.00;13.43;;;;;;;;;;5095583;28;20550;-68
2022/11/23 00:07:37;;;;;;;19.97;11.93;;;;;;;;;;5095078;28;20460;-67
2022/11/23 00:10:05;;;;;;;19.67;13.03;;;;;;;;;;5093315;28;20466;-68
2022/11/23 00:12:40;;;;;;;16.60;11.77;;;;;;;;;;5095940;28;20472;-68
2022/11/23 00:15:08;;;;;;;19.33;11.47;;;;;;;;;;5096762;28;20467;-68
2022/11/23 00:17:35;;;;;;;26.63;14.80;;;;;;;;;;5098906;28;20871;-69
2022/11/23 00:20:03;;;;;;;23.53;12.37;;;;;;;;;;5098310;28;20501;-68
2022/11/23 00:22:31;;;;;;;24.57;13.67;;;;;;;;;;5097397;28;20497;-68
2022/11/23 00:24:58;;;;;;;23.57;13.67;;;;;;;;;;5098018;28;20747;-68
2022/11/23 00:27:26;;;;;;;17.23;10.20;;;;;;;;;;5097175;28;20455;-68
2022/11/23 00:29:55;;;;;;;21.60;11.57;;;;;;;;;;5097513;28;20867;-68
2022/11/23 00:32:23;;;;;;;21.73;12.70;;;;;;;;;;5097987;28;20467;-68
2022/11/23 00:34:51;;;;;;;18.80;12.30;;;;;;;;;;5097262;28;20444;-68
2022/11/23 00:37:18;;;;;;;20.20;11.40;;;;;;;;;;5097879;28;20965;-67
2022/11/23 00:39:46;;;;;;;29.60;11.90;;;;;;;;;;5097625;28;20498;-68
2022/11/23 00:42:14;;;;;;;16.80;10.73;;;;;;;;;;5097451;28;20477;-68
2022/11/23 00:44:41;;;;;;;18.17;10.50;;;;;;;;;;5098851;28;20457;-68
2022/11/23 00:47:10;;;;;;;22.20;12.50;;;;;;;;;;5097003;28;20459;-67
2022/11/23 00:49:38;;;;;;;21.00;11.07;;;;;;;;;;5097974;28;20538;-68
2022/11/23 00:52:06;;;;;;;26.17;12.97;;;;;;;;;;5096987;28;20840;-68
2022/11/23 00:54:33;;;;;;;18.50;10.80;;;;;;;;;;5100791;28;20451;-68
2022/11/23 00:57:01;;;;;;;18.07;11.47;;;;;;;;;;5101215;28;20755;-68
2022/11/23 00:59:31;;;;;;;20.37;11.30;;;;;;;;;;5102002;28;20479;-68
2022/11/23 01:01:59;;;;;;;17.17;10.53;;;;;;;;;;5084587;28;20471;-68
2022/11/23 01:04:29;;;;;;;24.13;12.00;;;;;;;;;;5100944;28;20527;-67
2022/11/23 01:06:59;;;;;;;19.33;11.60;;;;;;;;;;5100694;28;20463;-68
2022/11/23 01:09:27;;;;;;;23.60;12.70;;;;;;;;;;5100705;28;20454;-68
2022/11/23 01:11:55;;;;;;;19.93;10.63;;;;;;;;;;5100184;28;20489;-67
2022/11/23 01:14:23;;;;;;;18.47;11.03;;;;;;;;;;5100030;28;20956;-68
2022/11/23 01:16:50;;;;;;;17.77;10.93;;;;;;;;;;5101053;28;20735;-68
2022/11/23 01:19:19;;;;;;;20.70;12.70;;;;;;;;;;5100308;28;20456;-68
2022/11/23 01:21:48;;;;;;;19.50;10.40;;;;;;;;;;5100562;28;20887;-68
2022/11/23 01:24:17;;;;;;;15.30;10.03;;;;;;;;;;5100478;28;20549;-68
2022/11/23 01:26:45;;;;;;;18.10;10.80;;;;;;;;;;5100458;28;20459;-68
2022/11/23 01:29:13;;;;;;;20.13;11.00;;;;;;;;;;5100511;28;21107;-68
2022/11/23 01:31:41;;;;;;;18.27;10.20;;;;;;;;;;5102058;28;20882;-68
2022/11/23 01:34:09;;;;;;;18.30;10.13;;;;;;;;;;5099687;28;20454;-68
2022/11/23 01:36:36;;;;;;;23.80;12.97;;;;;;;;;;5101531;28;20973;-68
2022/11/23 01:39:06;;;;;;;19.53;10.57;;;;;;;;;;5101539;28;20841;-67
2022/11/23 01:41:35;;;;;;;19.13;10.53;;;;;;;;;;5099955;28;20495;-67
2022/11/23 01:44:18;;;;;;;19.57;9.70;;;;;;;;;;5100666;28;20458;-68
2022/11/23 01:46:45;;;;;;;17.57;9.97;;;;;;;;;;5100470;28;20869;-68
2022/11/23 01:49:13;;;;;;;22.03;12.20;;;;;;;;;;5099467;28;20470;-67
2022/11/23 01:51:42;;;;;;;17.63;10.13;;;;;;;;;;5100473;28;20455;-68
2022/11/23 01:54:12;;;;;;;19.07;10.10;;;;;;;;;;5099616;28;20733;-68
2022/11/23 01:56:43;;;;;;;15.97;10.00;;;;;;;;;;5099644;28;20448;-68
2022/11/23 01:59:11;;;;;;;23.23;11.37;;;;;;;;;;5100946;28;20455;-68
2022/11/23 02:01:42;;;;;;;17.87;9.50;;;;;;;;;;5100026;28;20487;-68
2022/11/23 02:04:12;;;;;;;18.90;10.80;;;;;;;;;;5100489;28;20495;-68
2022/11/23 02:06:41;;;;;;;15.87;9.37;;;;;;;;;;5100390;28;20456;-68
2022/11/23 02:09:10;;;;;;;15.27;9.13;;;;;;;;;;5107262;28;20471;-68
2022/11/23 02:11:46;;;;;;;18.57;9.97;;;;;;;;;;5113346;28;20444;-68
2022/11/23 02:14:13;;;;;;;15.77;9.50;;;;;;;;;;5101990;28;20533;-68
2022/11/23 02:16:41;;;;;;;21.07;10.70;;;;;;;;;;5118527;28;20462;-68
2022/11/23 02:19:14;;;;;;;21.20;12.37;;;;;;;;;;5102118;28;20524;-68
2022/11/23 02:21:42;;;;;;;17.77;9.37;;;;;;;;;;5097845;28;20724;-68
2022/11/23 02:24:12;;;;;;;16.90;9.80;;;;;;;;;;5098494;28;20470;-68
2022/11/23 02:26:45;;;;;;;16.93;10.20;;;;;;;;;;5118411;28;20454;-68
2022/11/23 02:29:15;;;;;;;19.50;9.67;;;;;;;;;;5115322;28;20937;-68
2022/11/23 02:31:43;;;;;;;13.73;9.33;;;;;;;;;;5095412;28;20460;-68
2022/11/23 02:34:16;;;;;;;16.10;9.30;;;;;;;;;;5096754;28;20460;-68
2022/11/23 02:39:33;;;;;;;17.73;10.10;;;;;;;;;;5097282;28;20884;-67
2022/11/23 02:42:02;;;;;;;16.87;8.47;;;;;;;;;;5096495;28;20459;-67
2022/11/23 02:44:37;;;;;;;15.00;8.93;;;;;;;;;;5108515;28;20493;-67
2022/11/23 02:47:07;;;;;;;21.30;11.50;;;;;;;;;;5096640;28;20461;-68
2022/11/23 02:49:35;;;;;;;14.37;8.70;;;;;;;;;;5076311;28;20886;-68
2022/11/23 02:52:06;;;;;;;16.27;9.60;;;;;;;;;;5076111;28;20467;-69
2022/11/23 02:57:16;;;;;;;19.40;10.10;;;;;;;;;;5075043;28;20503;-68
2022/11/23 03:00:00;;;;;;;16.40;9.60;;;;;;;;;;5077603;28;20456;-68
2022/11/23 03:02:31;;;;;;;19.80;9.30;;;;;;;;;;5078834;28;20459;-68
2022/11/23 03:04:59;;;;;;;19.80;10.53;;;;;;;;;;5097340;28;20462;-67
2022/11/23 03:07:26;;;;;;;18.90;10.67;;;;;;;;;;5100336;28;20937;-68
2022/11/23 03:09:54;;;;;;;19.23;10.00;;;;;;;;;;5090287;28;20466;-68
2022/11/23 03:12:29;;;;;;;16.27;8.93;;;;;;;;;;5107459;28;20489;-67
2022/11/23 03:14:59;;;;;;;25.13;11.20;;;;;;;;;;5094122;28;20451;-68
2022/11/23 03:17:27;;;;;;;16.70;9.13;;;;;;;;;;5115766;28;20443;-67
2022/11/23 03:19:55;;;;;;;14.30;9.27;;;;;;;;;;5101228;28;20523;-68
2022/11/23 03:22:23;;;;;;;17.37;11.00;;;;;;;;;;5096296;28;20769;-68
2022/11/23 03:24:55;;;;;;;18.60;9.13;;;;;;;;;;5096742;28;20460;-69
2022/11/23 03:27:26;;;;;;;18.80;10.40;;;;;;;;;;5096919;28;20463;-67
2022/11/23 03:30:04;;;;;;;22.20;10.70;;;;;;;;;;5095761;28;20459;-67
2022/11/23 03:32:32;;;;;;;15.27;9.67;;;;;;;;;;5084451;28;20433;-67
2022/11/23 03:34:59;;;;;;;17.43;10.50;;;;;;;;;;5077161;28;20467;-67
2022/11/23 03:37:27;;;;;;;17.07;9.20;;;;;;;;;;5076912;28;20452;-67
2022/11/23 03:39:55;;;;;;;15.83;9.37;;;;;;;;;;5078928;28;20453;-67
2022/11/23 03:42:24;;;;;;;19.23;9.13;;;;;;;;;;5076775;28;20468;-67
2022/11/23 03:44:51;;;;;;;14.87;9.20;;;;;;;;;;5078812;28;20475;-68
2022/11/23 03:47:19;;;;;;;14.93;8.60;;;;;;;;;;5077691;28;20453;-67
2022/11/23 03:49:53;;;;;;;16.33;8.73;;;;;;;;;;5077458;28;20467;-68
2022/11/23 03:52:20;;;;;;;14.77;8.40;;;;;;;;;;5077543;28;20944;-67
2022/11/23 03:54:48;;;;;;;17.20;8.93;;;;;;;;;;5078345;28;20468;-68
2022/11/23 03:57:15;;;;;;;16.13;8.80;;;;;;;;;;5073183;28;20534;-67
2022/11/23 03:59:44;;;;;;;14.93;8.57;;;;;;;;;;5077812;28;20456;-67
2022/11/23 04:02:12;;;;;;;17.47;8.90;;;;;;;;;;5077518;28;20484;-67
2022/11/23 04:04:40;;;;;;;18.03;10.60;;;;;;;;;;5077560;28;20471;-67
2022/11/23 04:07:07;;;;;;;13.23;8.33;;;;;;;;;;5092327;28;20456;-67
2022/11/23 04:09:36;;;;;;;16.17;9.17;;;;;;;;;;5094971;28;20463;-67
2022/11/23 04:12:03;;;;;;;14.23;8.03;;;;;;;;;;5095777;28;20463;-68
2022/11/23 04:14:31;;;;;;;15.30;8.53;;;;;;;;;;5095120;28;20471;-68
2022/11/23 04:17:00;;;;;;;16.50;9.03;;;;;;;;;;5094395;28;20452;-68
2022/11/23 04:19:28;;;;;;;20.33;7.90;;;;;;;;;;5095551;28;20451;-68
2022/11/23 04:21:56;;;;;;;11.60;8.00;;;;;;;;;;5093834;28;21045;-69
2022/11/23 04:24:24;;;;;;;11.60;8.40;;;;;;;;;;5111044;28;20447;-66
2022/11/23 04:26:52;;;;;;;15.50;8.33;;;;;;;;;;5109763;28;20470;-68
2022/11/23 04:29:21;;;;;;;14.90;8.47;;;;;;;;;;5097571;28;20451;-69
2022/11/23 04:31:48;;;;;;;13.93;8.30;;;;;;;;;;5100363;28;20477;-68
2022/11/23 04:34:17;;;;;;;11.67;7.97;;;;;;;;;;5105055;28;20468;-68
2022/11/23 04:36:45;;;;;;;12.87;7.60;;;;;;;;;;5118706;28;20473;-68
2022/11/23 04:39:13;;;;;;;18.87;7.87;;;;;;;;;;5120490;28;20458;-68
2022/11/23 04:41:40;;;;;;;14.73;7.70;;;;;;;;;;5119407;28;20559;-67
2022/11/23 04:44:09;;;;;;;13.23;8.50;;;;;;;;;;5100316;28;20455;-68
2022/11/23 04:46:37;;;;;;;15.57;8.10;;;;;;;;;;5101133;28;20921;-67
2022/11/23 04:49:05;;;;;;;12.63;7.13;;;;;;;;;;5097162;28;20482;-67
2022/11/23 04:51:36;;;;;;;11.57;6.57;;;;;;;;;;5112802;28;20550;-69
2022/11/23 04:54:04;;;;;;;10.10;6.63;;;;;;;;;;5119508;28;20539;-68
2022/11/23 04:56:32;;;;;;;12.27;5.60;;;;;;;;;;5119590;28;20466;-68
2022/11/23 05:02:06;;;;;;;11.80;7.03;;;;;;;;;;5013780;28;21545;-68
2022/11/23 05:07:26;;;;;;;11.20;6.97;;;;;;;;;;5111230;28;20725;-68
2022/11/23 05:09:53;;;;;;;12.37;7.50;;;;;;;;;;5120799;28;20458;-68
2022/11/23 05:12:21;;;;;;;15.90;7.10;;;;;;;;;;5107268;28;20466;-68
2022/11/23 05:14:48;;;;;;;10.53;6.03;;;;;;;;;;5099178;28;20447;-67
2022/11/23 05:17:16;;;;;;;10.97;6.57;;;;;;;;;;5091615;28;20450;-68
2022/11/23 05:19:44;;;;;;;13.60;8.10;;;;;;;;;;5072220;28;20955;-68
2022/11/23 05:22:11;;;;;;;12.90;8.80;;;;;;;;;;5088911;28;20548;-68
2022/11/23 05:24:59;;;;;;;14.20;8.10;;;;;;;;;;5096058;28;20455;-69
2022/11/23 05:27:38;;;;;;;11.23;6.60;;;;;;;;;;5098645;28;20463;-67
2022/11/23 05:30:10;;;;;;;13.77;7.63;;;;;;;;;;5097485;28;21100;-67
2022/11/23 05:32:38;;;;;;;16.63;6.97;;;;;;;;;;5098160;28;20516;-67
2022/11/23 05:35:10;;;;;;;11.07;6.93;;;;;;;;;;5110043;28;20504;-67
2022/11/23 05:37:38;;;;;;;9.60;7.10;;;;;;;;;;5100512;28;20443;-67
2022/11/23 05:40:08;;;;;;;10.67;6.50;;;;;;;;;;5100026;28;20447;-67
2022/11/23 05:42:37;;;;;;;13.80;7.47;;;;;;;;;;5099609;28;20487;-67
2022/11/23 05:45:09;;;;;;;11.13;6.63;;;;;;;;;;5100142;28;20455;-68
2022/11/23 05:47:49;;;;;;;12.90;7.20;;;;;;;;;;5096403;28;20455;-67
2022/11/23 05:50:17;;;;;;;13.10;6.57;;;;;;;;;;5097604;28;20454;-67
2022/11/23 05:52:45;;;;;;;13.00;6.70;;;;;;;;;;5097087;28;20456;-68
2022/11/23 05:55:12;;;;;;;14.57;7.17;;;;;;;;;;5096757;28;20462;-68
2022/11/23 05:57:41;;;;;;;12.47;6.80;;;;;;;;;;5101706;28;20443;-67
2022/11/23 06:00:11;;;;;;;11.03;6.83;;;;;;;;;;5108102;28;20462;-67
2022/11/23 06:02:42;;;;;;;8.40;6.30;;;;;;;;;;5095261;28;21126;-67
2022/11/23 06:05:10;;;;;;;11.10;6.50;;;;;;;;;;5097378;28;21013;-67
2022/11/23 06:07:38;;;;;;;13.13;7.40;;;;;;;;;;5095031;28;20455;-68
2022/11/23 06:10:07;;;;;;;11.23;6.50;;;;;;;;;;5094620;28;20538;-69
2022/11/23 06:12:37;;;;;;;12.07;7.30;;;;;;;;;;5065279;28;20471;-69
2022/11/23 06:15:06;;;;;;;9.57;5.93;;;;;;;;;;5091947;28;20566;-69
2022/11/23 06:17:34;;;;;;;15.80;6.77;;;;;;;;;;5094342;28;20490;-68
2022/11/23 06:20:02;;;;;;;14.30;7.03;;;;;;;;;;5097824;28;20463;-69
2022/11/23 06:22:29;;;;;;;11.17;7.13;;;;;;;;;;5085500;28;20487;-68
2022/11/23 06:24:58;;;;;;;8.87;5.90;;;;;;;;;;5093069;28;20479;-69
2022/11/23 06:27:26;;;;;;;12.00;5.87;;;;;;;;;;5095265;28;20522;-69
2022/11/23 06:29:55;;;;;;;11.03;5.87;;;;;;;;;;5093886;28;21104;-68
2022/11/23 06:32:24;;;;;;;11.23;5.93;;;;;;;;;;5084412;28;20512;-69
2022/11/23 06:34:51;;;;;;;12.00;7.23;;;;;;;;;;5093305;28;20480;-69
2022/11/23 06:37:20;;;;;;;10.20;6.80;;;;;;;;;;5093320;28;20456;-69
2022/11/23 06:39:48;;;;;;;11.20;6.10;;;;;;;;;;5093580;28;20890;-68
2022/11/23 06:42:15;;;;;;;9.27;5.93;;;;;;;;;;5094442;28;20478;-68
2022/11/23 06:44:43;;;;;;;11.10;7.23;;;;;;;;;;5093514;28;20879;-68
2022/11/23 06:47:10;;;;;;;11.40;7.27;;;;;;;;;;5095080;28;20479;-69
2022/11/23 06:49:43;;;;;;;9.40;6.70;;;;;;;;;;5092995;28;20459;-69
2022/11/23 06:52:12;;;;;;;8.17;6.30;;;;;;;;;;5094808;28;20451;-69
2022/11/23 06:54:40;;;;;;;14.77;6.90;;;;;;;;;;5089373;28;20510;-69
2022/11/23 06:57:10;;;;;;;13.20;7.57;;;;;;;;;;5093764;28;20455;-70
2022/11/23 06:59:44;;;;;;;9.10;5.90;;;;;;;;;;5092862;28;20844;-69
2022/11/23 07:02:13;;;;;;;11.03;6.70;;;;;;;;;;5065960;28;20507;-69
2022/11/23 07:04:45;;;;;;;13.03;6.20;;;;;;;;;;5098147;28;20467;-69
2022/11/23 07:07:15;;;;;;;10.47;6.60;;;;;;;;;;5114155;28;20465;-69
2022/11/23 07:09:43;;;;;;;13.73;6.43;;;;;;;;;;5100231;28;20460;-69
2022/11/23 07:12:11;;;;;;;9.07;6.33;;;;;;;;;;5093877;28;20559;-69
2022/11/23 07:14:44;;;;;;;18.30;6.90;;;;;;;;;;5099061;28;20748;-69
2022/11/23 07:17:12;;;;;;;11.10;6.80;;;;;;;;;;5110511;28;20469;-69
2022/11/23 07:19:40;;;;;;;11.00;7.10;;;;;;;;;;5107751;28;20478;-68
2022/11/23 07:22:10;;;;;;;11.80;6.67;;;;;;;;;;5094501;28;20522;-69
2022/11/23 07:24:38;;;;;;;11.87;6.40;;;;;;;;;;5073996;28;20837;-68
2022/11/23 07:27:05;;;;;;;10.20;6.20;;;;;;;;;;5089751;28;20472;-69
2022/11/23 07:29:33;;;;;;;15.10;6.77;;;;;;;;;;5094271;28;20455;-69
2022/11/23 07:32:07;;;;;;;13.67;7.70;;;;;;;;;;5093349;28;20571;-68
2022/11/23 07:34:35;;;;;;;9.77;6.83;;;;;;;;;;5087492;28;20533;-68
2022/11/23 07:37:03;;;;;;;13.50;6.60;;;;;;;;;;5076867;28;20478;-68
2022/11/23 07:39:32;;;;;;;12.07;7.17;;;;;;;;;;5096256;28;20459;-68
2022/11/23 07:42:02;;;;;;;17.00;8.57;;;;;;;;;;5094912;28;20927;-69
2022/11/23 07:44:31;;;;;;;11.93;6.70;;;;;;;;;;5095247;28;20467;-69
2022/11/23 07:47:00;;;;;;;13.07;8.37;;;;;;;;;;5101837;28;20459;-68
2022/11/23 07:49:30;;;;;;;12.33;7.00;;;;;;;;;;5101182;28;20506;-67
2022/11/23 07:52:11;;;;;;;11.13;7.03;;;;;;;;;;5093742;28;20925;-68
2022/11/23 07:54:59;;;;;;;11.63;7.00;;;;;;;;;;5094518;28;20452;-69
2022/11/23 07:57:39;;;;;;;10.37;6.17;;;;;;;;;;5087171;28;20562;-68
2022/11/23 08:00:16;;;;;;;9.63;6.40;;;;;;;;;;5100167;28;20465;-68
2022/11/23 08:02:51;;;;;;;13.07;7.20;;;;;;;;;;5101345;28;20487;-68
2022/11/23 08:05:30;;;;;;;10.93;7.43;;;;;;;;;;5093015;28;20566;-68
2022/11/23 08:08:02;;;;;;;15.83;7.30;;;;;;;;;;5090079;28;20479;-68
2022/11/23 08:10:36;;;;;;;9.57;6.60;;;;;;;;;;5088769;28;20468;-68
2022/11/23 08:13:11;;;;;;;13.53;6.70;;;;;;;;;;5093832;28;21063;-68
2022/11/23 08:15:40;;;;;;;10.27;7.00;;;;;;;;;;5096574;28;20451;-68
2022/11/23 08:18:20;;;;;;;;;;;;;;;;;;;;;
2022/11/23 08:21:02;;;;;;;16.73;11.30;;;;;;;;;;5071236;28;20479;-70
2022/11/23 08:23:31;;;;;;;11.10;7.40;;;;;;;;;;5092797;28;20493;-69
2022/11/23 08:26:01;;;;;;;14.27;7.77;;;;;;;;;;5093359;28;20939;-68
2022/11/23 08:28:29;;;;;;;11.93;6.13;;;;;;;;;;5089640;28;20558;-68
2022/11/23 08:30:56;;;;;;;12.57;7.23;;;;;;;;;;5094383;28;20810;-68
2022/11/23 08:33:27;;;;;;;9.13;5.90;;;;;;;;;;5088203;28;20451;-68
2022/11/23 08:36:08;;;;;;;9.33;5.97;;;;;;;;;;5097750;28;20463;-70
2022/11/23 08:38:40;;;;;;;9.97;6.43;;;;;;;;;;5094864;28;20443;-69
2022/11/23 08:41:23;;;;;;;14.77;6.80;;;;;;;;;;5075261;28;20468;-69
2022/11/23 08:43:58;;;;;;;12.60;5.73;;;;;;;;;;5075487;28;20618;-69
2022/11/23 08:49:13;;;;;;;12.17;7.83;;;;;;;;;;5071031;28;20463;-68
2022/11/23 08:51:45;;;;;;;11.60;6.67;;;;;;;;;;5089962;28;20461;-68
2022/11/23 08:54:18;;;;;;;20.97;11.07;;;;;;;;;;5096049;28;20525;-70
2022/11/23 08:56:47;;;;;;;12.60;7.10;;;;;;;;;;5066765;28;20538;-69
2022/11/23 08:59:17;;;;;;;9.73;6.27;;;;;;;;;;5087413;28;20457;-69
2022/11/23 09:02:12;;;;;;;16.13;7.40;;;;;;;;;;5099841;28;20460;-69
2022/11/23 09:04:46;;;;;;;10.83;6.30;;;;;;;;;;5090110;28;20459;-68
2022/11/23 09:07:25;;;;;;;10.93;6.77;;;;;;;;;;5098782;28;20560;-70
2022/11/23 09:09:54;;;;;;;8.70;5.73;;;;;;;;;;5091422;28;20547;-69
2022/11/23 09:12:23;;;;;;;10.10;6.33;;;;;;;;;;5081047;28;20583;-69
2022/11/23 09:14:51;;;;;;;15.83;7.00;;;;;;;;;;5075053;28;20738;-69
2022/11/23 09:17:20;;;;;;;8.93;5.80;;;;;;;;;;5087360;28;20467;-70
2022/11/23 09:20:02;;;;;;;13.20;7.23;;;;;;;;;;5091833;28;20455;-69
2022/11/23 09:22:37;;;;;;;13.37;7.10;;;;;;;;;;5095528;28;20525;-69
2022/11/23 09:25:09;;;;;;;12.10;6.07;;;;;;;;;;5098039;28;20459;-70
2022/11/23 09:27:55;;;;;;;14.07;7.33;;;;;;;;;;5102634;28;21079;-70
2022/11/23 09:30:27;;;;;;;10.30;6.23;;;;;;;;;;5080184;28;20448;-70
2022/11/23 09:32:57;;;;;;;17.43;7.70;;;;;;;;;;5078085;28;20943;-70
2022/11/23 09:38:33;;;;;;;11.70;6.50;;;;;;;;;;5094173;28;20426;-68
2022/11/23 09:41:13;;;;;;;16.30;6.47;;;;;;;;;;5082036;28;20875;-69
2022/11/23 09:43:49;;;;;;;7.70;5.30;;;;;;;;;;5085278;28;20488;-68
2022/11/23 09:46:23;;;;;;;13.97;6.23;;;;;;;;;;5079617;28;20898;-69
2022/11/23 09:49:20;;;;;;;9.27;6.27;;;;;;;;;;5087847;28;20802;-70
2022/11/23 09:51:49;;;;;;;10.93;6.17;;;;;;;;;;4997884;28;20440;-68
2022/11/23 09:54:23;;;;;;;11.97;7.03;;;;;;;;;;5072528;28;21142;-69
2022/11/23 09:56:52;;;;;;;13.20;6.37;;;;;;;;;;5089717;28;20452;-69
2022/11/23 09:59:26;;;;;;;9.03;5.77;;;;;;;;;;5094757;28;20470;-69
2022/11/23 10:01:54;;;;;;;10.80;6.10;;;;;;;;;;5087989;28;20436;-69
2022/11/23 10:04:36;;;;;;;12.27;6.60;;;;;;;;;;5075871;28;20479;-68
2022/11/23 10:07:26;;;;;;;23.13;6.63;;;;;;;;;;5081108;28;20468;-69
2022/11/23 10:13:01;;;;;;;8.13;5.60;;;;;;;;;;5081370;28;20460;-69
2022/11/23 10:15:35;;;;;;;8.83;5.70;;;;;;;;;;5088475;28;20533;-69
2022/11/23 10:18:10;;;;;;;11.30;5.93;;;;;;;;;;5084771;28;20458;-70
2022/11/23 10:20:55;;;;;;;13.00;4.70;;;;;;;;;;5080416;28;20512;-69
2022/11/23 10:23:30;;;;;;;6.40;4.70;;;;;;;;;;5073987;28;20557;-69
2022/11/23 10:25:59;;;;;;;16.33;5.37;;;;;;;;;;5086265;28;20588;-69
2022/11/23 10:28:30;;;;;;;9.40;5.13;;;;;;;;;;5064755;28;20449;-70
2022/11/23 10:31:15;;;;;;;11.47;4.93;;;;;;;;;;5087007;28;20468;-69
2022/11/23 10:33:54;;;;;;;12.87;4.90;;;;;;;;;;5072394;28;20520;-71
2022/11/23 10:36:24;;;;;;;8.53;5.43;;;;;;;;;;5088778;28;20471;-69
2022/11/23 10:38:53;;;;;;;12.43;6.30;;;;;;;;;;5087986;28;20468;-69
2022/11/23 10:41:25;;;;;;;16.13;7.70;;;;;;;;;;5081565;28;20516;-69
2022/11/23 10:44:13;;;;;;;8.70;4.27;;;;;;;;;;5090383;28;20499;-71
2022/11/23 10:47:02;;;;;;;10.13;5.77;;;;;;;;;;5091500;28;20472;-70
2022/11/23 10:49:37;;;;;;;9.90;5.10;;;;;;;;;;5093321;28;20472;-70
2022/11/23 10:52:06;;;;;;;8.70;5.17;;;;;;;;;;5075814;28;20452;-69
2022/11/23 10:54:35;;;;;;;10.57;5.73;;;;;;;;;;5061626;28;20502;-69
2022/11/23 10:57:18;;;;;;;12.73;5.67;;;;;;;;;;5084289;28;20459;-69
2022/11/23 10:59:58;;;;;;;12.40;5.60;;;;;;;;;;5079370;28;20505;-69
2022/11/23 11:02:43;;;;;;;9.80;4.57;;;;;;;;;;5090798;28;20475;-67
2022/11/23 11:05:15;;;;;;;9.50;4.80;;;;;;;;;;5092277;28;20503;-68
2022/11/23 11:07:43;;;;;;;12.90;7.57;;;;;;;;;;5081760;28;20587;-69
2022/11/23 11:10:33;;;;;;;17.33;7.93;;;;;;;;;;5085010;28;20452;-69
2022/11/23 11:13:34;;;;;;;24.40;14.50;;;;;;;;;;5083014;28;20559;-69
2022/11/23 11:16:04;;;;;;;10.20;7.27;;;;;;;;;;5084696;28;20517;-68
2022/11/23 11:18:37;;;;;;;12.93;6.47;;;;;;;;;;5088139;28;20466;-69
2022/11/23 11:21:07;;;;;;;11.40;5.73;;;;;;;;;;5087368;28;20463;-69
2022/11/23 11:23:41;;;;;;;9.80;4.80;;;;;;;;;;5091606;28;20561;-68
2022/11/23 11:26:21;;;;;;;8.80;4.40;;;;;;;;;;5091882;28;20458;-69
2022/11/23 11:28:50;;;;;;;10.20;4.70;;;;;;;;;;5078554;28;20471;-68
2022/11/23 11:31:38;;;;;;;8.70;4.27;;;;;;;;;;5075719;28;20752;-69
2022/11/23 11:34:15;;;;;;;13.27;7.80;;;;;;;;;;5079995;28;20800;-68
2022/11/23 11:36:46;;;;;;;13.53;6.47;;;;;;;;;;5074290;28;20484;-69
2022/11/23 11:39:17;;;;;;;9.47;4.70;;;;;;;;;;5091196;28;20470;-69
2022/11/23 11:41:54;;;;;;;9.70;5.13;;;;;;;;;;5092476;28;20455;-69
2022/11/23 11:44:25;;;;;;;8.50;4.93;;;;;;;;;;5088828;28;20545;-69
2022/11/23 11:47:02;;;;;;;8.67;5.87;;;;;;;;;;5092197;28;20463;-70
2022/11/23 11:52:34;;;;;;;5.50;4.47;;;;;;;;;;5086232;28;20550;-69
2022/11/23 11:55:05;;;;;;;11.50;5.40;;;;;;;;;;5091980;28;20471;-69
2022/11/23 12:00:41;;;;;;;10.20;6.30;;;;;;;;;;5025212;28;20982;-68
2022/11/23 12:03:17;;;;;;;10.30;5.70;;;;;;;;;;5042607;28;20493;-68
2022/11/23 12:05:48;;;;;;;12.00;5.57;;;;;;;;;;5064104;28;20901;-68
2022/11/23 12:08:33;;;;;;;10.47;5.97;;;;;;;;;;5064014;28;20457;-69
2022/11/23 12:11:13;;;;;;;9.40;6.30;;;;;;;;;;5056758;28;20445;-68
2022/11/23 12:13:51;;;;;;;15.13;6.10;;;;;;;;;;5056059;28;20449;-70
2022/11/23 12:16:32;;;;;;;8.50;4.80;;;;;;;;;;5052994;28;20457;-68
2022/11/23 12:19:19;;;;;;;10.00;5.30;;;;;;;;;;5054959;28;20453;-69
2022/11/23 12:22:14;;;;;;;8.40;5.67;;;;;;;;;;5052670;28;20477;-69
2022/11/23 12:25:11;;;;;;;11.37;6.00;;;;;;;;;;5015859;28;20496;-68
2022/11/23 12:27:57;;;;;;;15.63;7.80;;;;;;;;;;5050584;28;20465;-70
2022/11/23 12:30:47;;;;;;;17.53;8.03;;;;;;;;;;5053425;28;20877;-69
2022/11/23 12:36:32;;;;;;;12.00;5.30;;;;;;;;;;5049424;28;20877;-69
2022/11/23 12:39:14;;;;;;;11.93;6.30;;;;;;;;;;5054394;28;20448;-69
2022/11/23 12:41:47;;;;;;;9.30;4.97;;;;;;;;;;5053801;28;20468;-69
2022/11/23 12:44:36;;;;;;;14.07;5.47;;;;;;;;;;5054453;28;20485;-69
2022/11/23 12:50:15;;;;;;;19.30;8.37;;;;;;;;;;5054305;28;22530;-70
2022/11/23 12:55:56;;;;;;;6.73;4.53;;;;;;;;;;5053775;28;20445;-69
2022/11/23 12:58:30;;;;;;;9.50;5.30;;;;;;;;;;5056051;28;20469;-69
2022/11/23 13:01:04;;;;;;;16.17;8.70;;;;;;;;;;5052239;28;20464;-69
2022/11/23 13:03:47;;;;;;;9.83;4.83;;;;;;;;;;5057550;28;20576;-68
2022/11/23 13:06:34;;;;;;;7.60;4.57;;;;;;;;;;5027781;28;20699;-68
2022/11/23 13:09:12;;;;;;;8.13;4.10;;;;;;;;;;5053717;28;20758;-68
2022/11/23 13:11:47;;;;;;;11.63;4.70;;;;;;;;;;5042444;28;20473;-70
2022/11/23 13:14:24;;;;;;;8.50;5.27;;;;;;;;;;5046322;28;20449;-68
2022/11/23 13:17:11;;;;;;;13.87;6.53;;;;;;;;;;5051463;28;20461;-68
2022/11/23 13:19:50;;;;;;;7.67;4.00;;;;;;;;;;5037211;28;20472;-68
2022/11/23 13:22:21;;;;;;;8.80;3.93;;;;;;;;;;5056085;28;20520;-68
2022/11/23 13:25:12;;;;;;;12.93;4.23;;;;;;;;;;5055565;28;20485;-68
2022/11/23 13:27:47;;;;;;;4.83;3.30;;;;;;;;;;5042256;28;20503;-68
2022/11/23 13:30:30;;;;;;;6.10;3.43;;;;;;;;;;5056021;28;20548;-69
2022/11/23 13:33:15;;;;;;;16.03;3.53;;;;;;;;;;5057396;28;20465;-68
2022/11/23 13:36:02;;;;;;;10.37;4.20;;;;;;;;;;5060798;28;20457;-69
2022/11/23 13:38:43;;;;;;;11.60;4.30;;;;;;;;;;5049668;28;20910;-69
2022/11/23 13:44:29;;;;;;;8.43;4.13;;;;;;;;;;5055828;28;20484;-69
2022/11/23 13:47:16;;;;;;;6.73;3.70;;;;;;;;;;5056811;28;20485;-69
2022/11/23 13:49:54;;;;;;;11.93;4.57;;;;;;;;;;5051300;28;20480;-70
2022/11/23 13:52:38;;;;;;;8.03;4.50;;;;;;;;;;5058019;28;20464;-70
2022/11/23 13:55:24;;;;;;;7.70;3.40;;;;;;;;;;5052859;28;20453;-69
2022/11/23 13:58:14;;;;;;;9.40;4.03;;;;;;;;;;5059075;28;20470;-67
2022/11/23 14:00:46;;;;;;;8.00;3.60;;;;;;;;;;5044915;28;20496;-69
2022/11/23 14:03:33;;;;;;;7.90;4.37;;;;;;;;;;5058014;28;20556;-69
2022/11/23 14:06:15;;;;;;;9.63;3.73;;;;;;;;;;5064550;28;20562;-68
2022/11/23 14:08:56;;;;;;;7.00;3.43;;;;;;;;;;5051516;28;20463;-69
2022/11/23 14:11:28;;;;;;;7.70;3.73;;;;;;;;;;5051205;28;20533;-68
2022/11/23 14:14:04;;;;;;;6.63;3.93;;;;;;;;;;5054524;28;20515;-68
2022/11/23 14:16:57;;;;;;;10.13;5.27;;;;;;;;;;5054735;28;20970;-68
2022/11/23 14:19:33;;;;;;;5.40;4.23;;;;;;;;;;5051479;28;20457;-67
2022/11/23 14:22:07;;;;;;;15.23;5.67;;;;;;;;;;5053861;28;20475;-68
2022/11/23 14:24:44;;;;;;;16.30;3.50;;;;;;;;;;5055012;28;20481;-69
2022/11/23 14:27:34;;;;;;;6.23;3.67;;;;;;;;;;5054341;28;20487;-68
2022/11/23 14:30:15;;;;;;;12.83;4.57;;;;;;;;;;5048622;28;20462;-69
2022/11/23 14:32:52;;;;;;;8.90;3.60;;;;;;;;;;5056796;28;20554;-68
2022/11/23 14:35:32;;;;;;;12.90;4.70;;;;;;;;;;5056732;28;21705;-69
2022/11/23 14:38:08;;;;;;;5.17;3.63;;;;;;;;;;5053589;28;20471;-68
2022/11/23 14:40:46;;;;;;;10.67;4.27;;;;;;;;;;5047217;28;21049;-68
2022/11/23 14:46:29;;;;;;;9.73;5.70;;;;;;;;;;5051606;28;20461;-68
2022/11/23 14:49:09;;;;;;;8.00;3.87;;;;;;;;;;5047630;28;20462;-67
2022/11/23 14:51:41;;;;;;;9.37;3.33;;;;;;;;;;5052183;28;20445;-67
2022/11/23 14:54:33;;;;;;;4.97;4.03;;;;;;;;;;5046534;28;20484;-68
2022/11/23 14:57:08;;;;;;;7.20;4.17;;;;;;;;;;5050065;28;20452;-69
2022/11/23 14:59:38;;;;;;;15.30;4.63;;;;;;;;;;5082892;28;20467;-67
2022/11/23 15:02:18;;;;;;;9.90;5.30;;;;;;;;;;5073505;28;20813;-67
2022/11/23 15:05:04;;;;;;;12.70;4.40;;;;;;;;;;5056823;28;20488;-68
2022/11/23 15:07:42;;;;;;;8.03;4.27;;;;;;;;;;5051241;28;20530;-68
2022/11/23 15:10:42;;;;;;;16.90;6.30;;;;;;;;;;5048219;28;20873;-68
2022/11/23 15:13:26;;;;;;;15.63;7.60;;;;;;;;;;5019516;28;20495;-66
2022/11/23 15:15:55;;;;;;;11.30;4.53;;;;;;;;;;5054445;28;20465;-67
2022/11/23 15:18:39;;;;;;;11.77;4.50;;;;;;;;;;5048341;28;20536;-67
2022/11/23 15:21:17;;;;;;;7.60;4.27;;;;;;;;;;5040161;28;20481;-68
2022/11/23 15:23:52;;;;;;;9.47;3.70;;;;;;;;;;5074501;28;20510;-67
2022/11/23 15:26:21;;;;;;;7.57;3.90;;;;;;;;;;5062323;28;20455;-67
2022/11/23 15:28:51;;;;;;;6.40;4.23;;;;;;;;;;5041296;28;20461;-67
2022/11/23 15:31:21;;;;;;;8.20;3.60;;;;;;;;;;5047470;28;20779;-67
2022/11/23 15:36:50;;;;;;;7.63;3.13;;;;;;;;;;5055906;28;20476;-68
2022/11/23 15:39:26;;;;;;;6.70;3.30;;;;;;;;;;5064575;28;20465;-68
2022/11/23 15:41:57;;;;;;;9.27;3.90;;;;;;;;;;5053994;28;20963;-69
2022/11/23 15:44:34;;;;;;;9.43;4.07;;;;;;;;;;5069615;28;20556;-68
2022/11/23 15:47:04;;;;;;;5.53;3.50;;;;;;;;;;5075273;28;20455;-68
2022/11/23 15:49:33;;;;;;;9.90;4.00;;;;;;;;;;5077290;28;20507;-67